»·PEaware :: UAL1845 KSFO-KDEN

UAL1845 :: KSFO-KDEN

FLIGHT INFORMATION

Flight Status: Arrived
Operator:
United Airlines
More flights by this operator :: More flights under this callsign
Pilot: Jeff G. (394)
Aircraft: BOEING 757-200
(B752)
More flights by this aircraft type
Origin: KSFO San Francisco Intl
United States
Destination: KDEN Denver Intl
United States
More flights between these airports :: More routes between these airports
Route: TRUKN2 SYRAH Q128 JSICA MLF J28 HVE WOLLF TELLR2
File this flight plan on PilotEdge
Remarks: PBN / A1B3B4B5C4D4O4 DOF / 171230 REG / N608DA EET / KZLC0036 KZDV0117 OPR / UAL PER / D RMK / TCAS SIMBRIEF
Altitude:
(Current/Filed)
37,000ft
Speed:
(Current/Filed)
433kts
Departed: 30-Dec-17 02:31 PM
Arrived: 30-Dec-17 04:22 PM
Distance/Time
Traveled:
838nm/1:50
Distance/Time
To Go:
Arrived

Flight Plot

Page will automatically refresh every two minutes.


Map Options




Map Legend


Flown Route
Filed Route
Departure Airport
Arrival Airport
Navaid (VOR, NDB)
Fix

Horizontal Profiles

Position Reports

Time Latitude Longitude Heading Altitude Ground
Speed
30-Dec-17 13:44 37.621121 -122.390753 118 20ft 0kts
30-Dec-17 13:45 37.621121 -122.390753 118 20ft 0kts
30-Dec-17 13:46 37.621121 -122.390753 118 20ft 0kts
30-Dec-17 13:47 37.621121 -122.390753 118 20ft 0kts
30-Dec-17 13:48 37.621121 -122.390753 118 20ft 0kts
30-Dec-17 13:49 37.621121 -122.390753 118 20ft 0kts
30-Dec-17 13:50 37.621121 -122.390753 118 20ft 0kts
30-Dec-17 13:51 37.621121 -122.390753 118 20ft 0kts
30-Dec-17 13:52 37.621121 -122.390753 118 20ft 0kts
30-Dec-17 13:53 37.621121 -122.390753 118 20ft 0kts
30-Dec-17 13:54 37.621121 -122.390753 118 20ft 0kts
30-Dec-17 13:55 37.621121 -122.390753 118 20ft 0kts
30-Dec-17 13:56 37.621121 -122.390753 118 20ft 0kts
30-Dec-17 13:57 37.621121 -122.390753 118 20ft 0kts
30-Dec-17 13:58 37.621121 -122.390753 118 20ft 0kts
30-Dec-17 13:59 37.621122 -122.390753 118 20ft 0kts
30-Dec-17 14:00 37.621122 -122.390753 118 19ft 0kts
30-Dec-17 14:01 37.621122 -122.390753 118 19ft 0kts
30-Dec-17 14:02 37.621122 -122.390753 118 19ft 0kts
30-Dec-17 14:03 37.621122 -122.390753 118 19ft 0kts
30-Dec-17 14:04 37.621122 -122.390753 118 19ft 0kts
30-Dec-17 14:05 37.621122 -122.390753 118 19ft 0kts
30-Dec-17 14:06 37.621122 -122.390753 118 19ft 0kts
30-Dec-17 14:07 37.621122 -122.390753 118 19ft 0kts
30-Dec-17 14:08 37.621122 -122.390753 118 19ft 0kts
30-Dec-17 14:09 37.621122 -122.390753 118 19ft 0kts
30-Dec-17 14:10 37.621122 -122.390753 118 19ft 0kts
30-Dec-17 14:11 37.621122 -122.390753 118 20ft 0kts
30-Dec-17 14:12 37.621312 -122.391209 118 20ft 2kts
30-Dec-17 14:13 37.621261 -122.391680 29 21ft 0kts
30-Dec-17 14:14 37.621199 -122.391715 26 21ft 0kts
30-Dec-17 14:15 37.621200 -122.391715 26 21ft 0kts
30-Dec-17 14:16 37.621199 -122.391715 26 21ft 0kts
30-Dec-17 14:17 37.621199 -122.391715 26 21ft 0kts
30-Dec-17 14:18 37.621757 -122.391356 25 20ft 6kts
30-Dec-17 14:19 37.623351 -122.390129 74 15ft 6kts
30-Dec-17 14:20 37.623233 -122.388769 114 17ft 4kts
30-Dec-17 14:21 37.622601 -122.387273 117 18ft 6kts
30-Dec-17 14:22 37.621748 -122.385252 119 18ft 6kts
30-Dec-17 14:23 37.620835 -122.383087 118 20ft 9kts
30-Dec-17 14:24 37.619263 -122.379621 133 19ft 10kts
30-Dec-17 14:25 37.616978 -122.378686 186 20ft 11kts
30-Dec-17 14:26 37.614546 -122.380109 207 18ft 9kts
30-Dec-17 14:27 37.612687 -122.381303 207 18ft 6kts
30-Dec-17 14:28 37.611506 -122.382083 207 18ft 0kts
30-Dec-17 14:29 37.610117 -122.383004 208 21ft 5kts
30-Dec-17 14:30 37.609227 -122.383421 158 20ft 0kts
30-Dec-17 14:31 37.609227 -122.383421 158 20ft 0kts
30-Dec-17 14:32 37.609227 -122.383421 158 20ft 0kts
30-Dec-17 14:33 37.609227 -122.383421 158 20ft 0kts
30-Dec-17 14:34 37.609227 -122.383421 158 20ft 0kts
30-Dec-17 14:35 37.609227 -122.383421 158 20ft 0kts
30-Dec-17 14:36 37.609109 -122.383345 149 20ft 4kts
30-Dec-17 14:37 37.614365 -122.378662 29 20ft 123kts
30-Dec-17 14:38 37.645995 -122.341073 53 2056ft 195kts
30-Dec-17 14:39 37.684626 -122.276647 53 4476ft 251kts
30-Dec-17 14:40 37.724219 -122.201594 56 7794ft 266kts
30-Dec-17 14:41 37.765766 -122.121464 55 10475ft 299kts
30-Dec-17 14:42 37.815543 -122.025140 55 12724ft 350kts
30-Dec-17 14:43 37.844816 -121.903726 74 15403ft 375kts
30-Dec-17 14:44 37.869319 -121.772407 73 17776ft 396kts
30-Dec-17 14:45 37.894901 -121.633726 73 19977ft 416kts
30-Dec-17 14:46 37.921545 -121.488090 73 22029ft 436kts
30-Dec-17 14:47 37.949145 -121.336043 73 23884ft 455kts
30-Dec-17 14:48 37.977766 -121.177316 73 25537ft 473kts
30-Dec-17 14:49 38.005361 -121.011301 75 27056ft 492kts
30-Dec-17 14:50 38.032090 -120.837977 75 28471ft 510kts
30-Dec-17 14:51 38.059465 -120.658802 75 29842ft 526kts
30-Dec-17 14:52 38.087319 -120.474533 75 31143ft 541kts
30-Dec-17 14:53 38.115434 -120.286431 76 32481ft 553kts
30-Dec-17 14:54 38.143772 -120.094570 77 34094ft 556kts
30-Dec-17 14:55 38.171766 -119.902695 77 35965ft 552kts
30-Dec-17 14:56 38.199312 -119.711709 76 37288ft 550kts
30-Dec-17 14:57 38.226620 -119.520135 77 37267ft 550kts
30-Dec-17 14:58 38.253410 -119.329872 77 37221ft 550kts
30-Dec-17 14:59 38.280016 -119.138408 77 37208ft 551kts
30-Dec-17 15:00 38.306353 -118.946513 77 37211ft 550kts
30-Dec-17 15:01 38.332360 -118.754660 76 37215ft 550kts
30-Dec-17 15:02 38.358014 -118.563163 76 37219ft 550kts
30-Dec-17 15:03 38.383350 -118.371419 76 37222ft 550kts
30-Dec-17 15:04 38.408183 -118.181077 77 37206ft 551kts
30-Dec-17 15:05 38.432929 -117.988799 77 37210ft 551kts
30-Dec-17 15:06 38.457427 -117.795939 76 37218ft 551kts
30-Dec-17 15:07 38.481561 -117.603300 77 37274ft 551kts
30-Dec-17 15:08 38.505367 -117.410673 77 37286ft 551kts
30-Dec-17 15:09 38.518210 -117.216018 89 37270ft 555kts
30-Dec-17 15:10 38.514950 -117.019206 89 37273ft 557kts
30-Dec-17 15:11 38.510593 -116.821346 88 37277ft 558kts
30-Dec-17 15:12 38.505863 -116.623967 88 37282ft 559kts
30-Dec-17 15:13 38.500775 -116.426196 89 37286ft 558kts
30-Dec-17 15:14 38.495352 -116.228472 89 37269ft 558kts
30-Dec-17 15:15 38.489600 -116.030924 89 37273ft 559kts
30-Dec-17 15:16 38.483504 -115.832960 89 37268ft 558kts
30-Dec-17 15:17 38.477096 -115.635538 89 37245ft 559kts
30-Dec-17 15:18 38.470343 -115.437871 89 37249ft 559kts
30-Dec-17 15:19 38.463262 -115.240374 90 37233ft 559kts
30-Dec-17 15:20 38.455808 -115.042317 89 37237ft 560kts
30-Dec-17 15:21 38.448036 -114.843981 89 37240ft 560kts
30-Dec-17 15:22 38.440136 -114.650645 89 37245ft 560kts
30-Dec-17 15:23 38.431680 -114.452128 89 37249ft 560kts
30-Dec-17 15:24 38.422937 -114.254640 90 37232ft 560kts
30-Dec-17 15:25 38.413884 -114.057556 89 37196ft 561kts
30-Dec-17 15:26 38.404440 -113.859516 89 37176ft 561kts
30-Dec-17 15:27 38.394682 -113.661750 89 37181ft 561kts
30-Dec-17 15:28 38.384567 -113.463487 89 37185ft 561kts
30-Dec-17 15:29 38.374154 -113.265960 90 37169ft 561kts
30-Dec-17 15:30 38.363399 -113.068454 90 37173ft 561kts
30-Dec-17 15:31 38.363297 -112.904684 81 37176ft 556kts
30-Dec-17 15:32 38.371379 -112.675455 82 37181ft 556kts
30-Dec-17 15:33 38.376395 -112.513073 82 37186ft 556kts
30-Dec-17 15:34 38.382137 -112.316605 83 37182ft 557kts
30-Dec-17 15:35 38.388395 -112.087356 82 37275ft 557kts
30-Dec-17 15:36 38.393411 -111.890715 82 37295ft 556kts
30-Dec-17 15:37 38.397364 -111.726172 82 37298ft 557kts
30-Dec-17 15:38 38.402476 -111.496911 83 37277ft 556kts
30-Dec-17 15:39 38.405867 -111.332920 83 37215ft 557kts
30-Dec-17 15:40 38.409632 -111.135888 83 37208ft 558kts
30-Dec-17 15:41 38.413025 -110.940275 82 37212ft 559kts
30-Dec-17 15:42 38.416148 -110.743076 82 37216ft 559kts
30-Dec-17 15:43 38.420425 -110.545645 81 37220ft 559kts
30-Dec-17 15:44 38.424778 -110.349401 82 37223ft 559kts
30-Dec-17 15:45 38.428817 -110.152184 82 37191ft 559kts
30-Dec-17 15:46 38.432527 -109.954615 82 37193ft 559kts
30-Dec-17 15:47 38.435907 -109.757091 82 37198ft 560kts
30-Dec-17 15:48 38.438962 -109.558993 82 37202ft 559kts
30-Dec-17 15:49 38.441655 -109.363205 82 37217ft 560kts
30-Dec-17 15:50 38.444050 -109.165007 83 37241ft 561kts
30-Dec-17 15:51 38.446106 -108.966287 82 37263ft 569kts
30-Dec-17 15:52 38.447859 -108.765246 82 37272ft 569kts
30-Dec-17 15:53 38.449267 -108.563541 82 37276ft 568kts
30-Dec-17 15:54 38.450327 -108.362522 82 37246ft 569kts
30-Dec-17 15:55 38.451033 -108.165752 82 37169ft 570kts
30-Dec-17 15:56 38.451412 -107.964662 83 37184ft 570kts
30-Dec-17 15:57 38.451445 -107.762376 82 37188ft 570kts
30-Dec-17 15:58 38.468457 -107.567011 57 37201ft 539kts
30-Dec-17 15:59 38.537038 -107.404590 46 37203ft 518kts
30-Dec-17 16:00 38.607381 -107.247447 47 37195ft 519kts
30-Dec-17 16:01 38.678458 -107.087683 47 37195ft 517kts
30-Dec-17 16:02 38.745422 -106.936352 46 36752ft 487kts
30-Dec-17 16:03 38.811412 -106.786660 46 36448ft 485kts
30-Dec-17 16:04 38.878259 -106.636079 44 34487ft 484kts
30-Dec-17 16:05 38.946961 -106.488023 45 32339ft 487kts
30-Dec-17 16:06 39.015449 -106.339460 47 30190ft 492kts
30-Dec-17 16:07 39.083209 -106.189902 49 28005ft 479kts
30-Dec-17 16:08 39.148044 -106.044634 50 25957ft 465kts
30-Dec-17 16:09 39.210946 -105.902061 51 23914ft 452kts
30-Dec-17 16:10 39.271854 -105.763379 52 21958ft 438kts
30-Dec-17 16:11 39.330303 -105.629893 53 20108ft 424kts
30-Dec-17 16:12 39.386160 -105.500279 61 18731ft 404kts
30-Dec-17 16:13 39.400099 -105.362581 82 18065ft 379kts
30-Dec-17 16:14 39.406195 -105.231205 84 16429ft 364kts
30-Dec-17 16:15 39.411711 -105.108904 84 14312ft 347kts
30-Dec-17 16:16 39.409476 -104.988121 117 12136ft 334kts
30-Dec-17 16:17 39.394369 -104.879583 71 11003ft 316kts
30-Dec-17 16:18 39.432964 -104.786395 56 11007ft 308kts
30-Dec-17 16:19 39.469985 -104.697262 19 10999ft 226kts
30-Dec-17 16:20 39.525047 -104.668914 8 10122ft 208kts
30-Dec-17 16:21 39.579390 -104.663730 355 8440ft 194kts
30-Dec-17 16:22 39.631265 -104.662929 356 7106ft 173kts
30-Dec-17 16:23 39.678752 -104.662385 356 7038ft 170kts
30-Dec-17 16:24 39.725040 -104.661810 356 7030ft 157kts
30-Dec-17 16:25 39.767443 -104.661280 356 6618ft 133kts
30-Dec-17 16:26 39.804309 -104.660867 357 5916ft 133kts
30-Dec-17 16:27 39.837817 -104.660544 358 5416ft 75kts
30-Dec-17 16:28 39.848923 -104.661550 323 5406ft 0kts
30-Dec-17 16:29 39.848923 -104.661549 323 5406ft 0kts
30-Dec-17 16:30 39.849173 -104.661781 326 5407ft 4kts
30-Dec-17 16:31 39.851438 -104.662411 350 5414ft 10kts
30-Dec-17 16:32 39.852071 -104.664853 282 5414ft 8kts
30-Dec-17 16:33 39.853755 -104.667286 324 5416ft 11kts
30-Dec-17 16:34 39.856306 -104.669347 323 5422ft 3kts
30-Dec-17 16:35 39.857193 -104.670074 352 5421ft 2kts
30-Dec-17 16:36 39.857872 -104.670074 358 5421ft 1kts
30-Dec-17 16:37 39.858056 -104.670067 2 5421ft 0kts
30-Dec-17 16:38 39.858056 -104.670067 2 5421ft 0kts
30-Dec-17 16:39 39.858056 -104.670067 2 5421ft 0kts
30-Dec-17 16:40 39.858056 -104.670067 2 5421ft 0kts
30-Dec-17 16:41 39.858056 -104.670067 2 5421ft 0kts
30-Dec-17 16:42 39.858056 -104.670067 2 5421ft 0kts

Navigation Log

Ident Type
1. KSFO Airport
2. JSICA Fix
3. MLF Navaid
4. HVE Navaid
5. KDEN Airport